Time;durP1;ratioP1;P1;durP2;ratioP2;P2;SDS_P1;SDS_P2;PMS_P1;PMS_P2;Temp;Humidity;BMP_temperature;BMP_pressure;BME280_temperature;BME280_humidity;BME280_pressure;Samples;Min_cycle;Max_cycle;Signal;HPM_P1;HPM_P2
2021/01/12 00:01:39;;;;;;;21.77;15.98;;;;;;;;;;5094693;28;20044;-75
2021/01/12 00:04:05;;;;;;;21.73;14.60;;;;;;;;;;5095995;28;20075;-74
2021/01/12 00:06:30;;;;;;;24.15;14.93;;;;;;;;;;5095806;28;20063;-74
2021/01/12 00:08:55;;;;;;;22.98;15.20;;;;;;;;;;5095681;28;20040;-74
2021/01/12 00:11:21;;;;;;;26.77;15.85;;;;;;;;;;5095552;28;20048;-74
2021/01/12 00:13:46;;;;;;;24.45;16.00;;;;;;;;;;5094514;28;20024;-74
2021/01/12 00:16:12;;;;;;;22.17;14.60;;;;;;;;;;5094950;28;20032;-74
2021/01/12 00:18:37;;;;;;;24.50;15.27;;;;;;;;;;5095207;28;20036;-74
2021/01/12 00:21:03;;;;;;;27.05;16.50;;;;;;;;;;5094301;28;20031;-74
2021/01/12 00:23:28;;;;;;;21.83;15.27;;;;;;;;;;5095592;28;20032;-74
2021/01/12 00:25:53;;;;;;;23.30;15.27;;;;;;;;;;5095374;28;20478;-74
2021/01/12 00:28:18;;;;;;;24.52;16.23;;;;;;;;;;5095201;28;20039;-74
2021/01/12 00:30:44;;;;;;;24.92;15.90;;;;;;;;;;5093650;28;20032;-74
2021/01/12 00:33:09;;;;;;;24.20;15.93;;;;;;;;;;5095331;28;20050;-74
2021/01/12 00:35:34;;;;;;;22.48;14.98;;;;;;;;;;5095305;28;20097;-74
2021/01/12 00:38:00;;;;;;;25.75;16.00;;;;;;;;;;5093908;28;20614;-74
2021/01/12 00:40:25;;;;;;;25.80;16.85;;;;;;;;;;5094677;28;20036;-74
2021/01/12 00:42:51;;;;;;;24.90;16.10;;;;;;;;;;5095023;28;20040;-74
2021/01/12 00:45:16;;;;;;;27.80;17.30;;;;;;;;;;5094797;28;20134;-74
2021/01/12 00:47:43;;;;;;;26.88;16.95;;;;;;;;;;5093910;28;20067;-74
2021/01/12 00:50:09;;;;;;;27.23;17.25;;;;;;;;;;5093727;28;20027;-74
2021/01/12 00:52:34;;;;;;;25.35;17.15;;;;;;;;;;5094977;28;20480;-74
2021/01/12 00:54:59;;;;;;;28.70;17.67;;;;;;;;;;5094721;28;20039;-74
2021/01/12 00:57:25;;;;;;;28.63;18.00;;;;;;;;;;5093613;28;20077;-74
2021/01/12 00:59:50;;;;;;;31.15;18.23;;;;;;;;;;5094550;28;20456;-74
2021/01/12 01:02:15;;;;;;;24.98;16.20;;;;;;;;;;5095007;28;20381;-74
2021/01/12 01:04:41;;;;;;;21.40;15.48;;;;;;;;;;5094761;28;20074;-74
2021/01/12 01:07:06;;;;;;;25.00;17.48;;;;;;;;;;5094570;28;20054;-74
2021/01/12 01:09:31;;;;;;;26.75;16.83;;;;;;;;;;5093860;28;20107;-74
2021/01/12 01:11:57;;;;;;;31.63;17.60;;;;;;;;;;5094543;28;20103;-74
2021/01/12 01:14:22;;;;;;;26.17;17.27;;;;;;;;;;5093374;28;20105;-74
2021/01/12 01:16:48;;;;;;;27.73;18.25;;;;;;;;;;5094278;28;20197;-74
2021/01/12 01:19:14;;;;;;;23.10;16.50;;;;;;;;;;5094434;28;20036;-74
2021/01/12 01:21:39;;;;;;;24.77;15.70;;;;;;;;;;5094598;28;20032;-74
2021/01/12 01:24:06;;;;;;;28.80;17.67;;;;;;;;;;5094293;28;20060;-75
2021/01/12 01:26:32;;;;;;;26.98;16.95;;;;;;;;;;5094441;28;20389;-74
2021/01/12 01:28:57;;;;;;;26.05;16.95;;;;;;;;;;5092666;28;20110;-74
2021/01/12 01:31:23;;;;;;;25.23;17.55;;;;;;;;;;5092744;28;20447;-75
2021/01/12 01:33:48;;;;;;;26.45;17.33;;;;;;;;;;5094162;28;20036;-75
2021/01/12 01:36:14;;;;;;;25.95;17.92;;;;;;;;;;5094047;28;20028;-75
2021/01/12 01:38:39;;;;;;;28.88;16.85;;;;;;;;;;5093781;28;20470;-75
2021/01/12 01:41:06;;;;;;;28.25;16.73;;;;;;;;;;5094129;28;20039;-75
2021/01/12 01:43:32;;;;;;;25.80;15.98;;;;;;;;;;5092550;28;20032;-75
2021/01/12 01:45:58;;;;;;;26.10;16.15;;;;;;;;;;5093583;28;20055;-75
2021/01/12 01:48:23;;;;;;;22.80;14.85;;;;;;;;;;5093829;28;20040;-75
2021/01/12 01:50:49;;;;;;;24.75;15.75;;;;;;;;;;5093991;28;20165;-75
2021/01/12 01:53:14;;;;;;;28.23;16.75;;;;;;;;;;5093554;28;20031;-75
2021/01/12 01:55:40;;;;;;;23.25;15.00;;;;;;;;;;5093976;28;20047;-74
2021/01/12 01:58:07;;;;;;;22.70;15.75;;;;;;;;;;5093869;28;20039;-74
2021/01/12 02:00:33;;;;;;;23.85;15.73;;;;;;;;;;5092180;28;20032;-75
2021/01/12 02:03:07;;;;;;;22.13;15.35;;;;;;;;;;5093819;28;20032;-75
2021/01/12 02:05:35;;;;;;;24.52;15.35;;;;;;;;;;5093507;28;20051;-75
2021/01/12 02:08:13;;;;;;;24.58;15.90;;;;;;;;;;5093541;28;20028;-75
2021/01/12 02:10:46;;;;;;;21.38;14.73;;;;;;;;;;5093745;28;20032;-75
2021/01/12 02:13:20;;;;;;;20.90;14.45;;;;;;;;;;5093176;28;20456;-74
2021/01/12 02:15:46;;;;;;;24.05;14.98;;;;;;;;;;5093360;28;20470;-74
2021/01/12 02:18:13;;;;;;;21.77;13.82;;;;;;;;;;5093178;28;20035;-74
2021/01/12 02:20:39;;;;;;;20.65;13.18;;;;;;;;;;5093461;28;20036;-74
2021/01/12 02:23:08;;;;;;;24.73;14.70;;;;;;;;;;5093469;28;20362;-74
2021/01/12 02:25:38;;;;;;;22.00;14.30;;;;;;;;;;5093404;28;20039;-74
2021/01/12 02:28:07;;;;;;;23.63;15.25;;;;;;;;;;5092217;28;20032;-74
2021/01/12 02:30:34;;;;;;;19.23;12.77;;;;;;;;;;5091890;28;20042;-74
2021/01/12 02:33:00;;;;;;;19.98;13.40;;;;;;;;;;5093440;28;20032;-74
2021/01/12 02:35:27;;;;;;;20.55;13.05;;;;;;;;;;5093267;28;20514;-74
2021/01/12 02:37:53;;;;;;;20.15;13.88;;;;;;;;;;5093296;28;20036;-74
2021/01/12 02:40:19;;;;;;;24.05;14.27;;;;;;;;;;5093280;28;20491;-74
2021/01/12 02:42:45;;;;;;;20.95;13.27;;;;;;;;;;5093390;28;20139;-74
2021/01/12 02:45:11;;;;;;;20.50;13.15;;;;;;;;;;5092951;28;20048;-74
2021/01/12 02:47:37;;;;;;;20.40;13.60;;;;;;;;;;5091725;28;20040;-74
2021/01/12 02:50:05;;;;;;;22.17;13.20;;;;;;;;;;5093221;28;20043;-74
2021/01/12 02:52:31;;;;;;;20.95;14.07;;;;;;;;;;5091882;28;20048;-74
2021/01/12 02:54:56;;;;;;;20.95;13.20;;;;;;;;;;5093428;28;20033;-75
2021/01/12 02:57:22;;;;;;;21.45;13.80;;;;;;;;;;5091914;28;20039;-75
2021/01/12 02:59:47;;;;;;;20.40;13.13;;;;;;;;;;5092811;28;20082;-75
2021/01/12 03:02:12;;;;;;;19.05;13.07;;;;;;;;;;5092986;28;20028;-74
2021/01/12 03:04:38;;;;;;;19.23;12.57;;;;;;;;;;5093233;28;20032;-75
2021/01/12 03:07:03;;;;;;;19.83;12.13;;;;;;;;;;5092940;28;20474;-75
2021/01/12 03:09:28;;;;;;;19.20;12.85;;;;;;;;;;5092927;28;20054;-74
2021/01/12 03:11:54;;;;;;;18.67;12.82;;;;;;;;;;5092549;28;20508;-75
2021/01/12 03:14:19;;;;;;;20.35;12.73;;;;;;;;;;5091977;28;20441;-74
2021/01/12 03:16:45;;;;;;;19.52;12.40;;;;;;;;;;5091726;28;20040;-74
2021/01/12 03:19:11;;;;;;;18.08;12.15;;;;;;;;;;5091900;28;20097;-75
2021/01/12 03:21:36;;;;;;;20.60;13.02;;;;;;;;;;5092232;28;20482;-73
2021/01/12 03:24:02;;;;;;;20.70;12.20;;;;;;;;;;5092115;28;20028;-74
2021/01/12 03:26:27;;;;;;;19.75;12.45;;;;;;;;;;5092341;28;20036;-74
2021/01/12 03:28:53;;;;;;;18.38;12.07;;;;;;;;;;5092759;28;20044;-74
2021/01/12 03:31:18;;;;;;;18.13;11.68;;;;;;;;;;5092557;28;20040;-74
2021/01/12 03:33:43;;;;;;;19.65;12.77;;;;;;;;;;5096464;28;20117;-74
2021/01/12 03:36:09;;;;;;;18.10;12.15;;;;;;;;;;5096327;28;20178;-74
2021/01/12 03:38:34;;;;;;;16.67;11.38;;;;;;;;;;5096437;28;20036;-74
2021/01/12 03:41:00;;;;;;;16.45;11.57;;;;;;;;;;5096429;28;20444;-74
2021/01/12 03:43:25;;;;;;;18.95;12.15;;;;;;;;;;5095081;28;20048;-74
2021/01/12 03:45:51;;;;;;;16.60;11.93;;;;;;;;;;5095750;28;20052;-74
2021/01/12 03:48:17;;;;;;;19.38;12.45;;;;;;;;;;5096307;28;20106;-75
2021/01/12 03:50:42;;;;;;;19.23;12.50;;;;;;;;;;5096083;28;20024;-73
2021/01/12 03:53:08;;;;;;;17.33;11.65;;;;;;;;;;5096237;28;20446;-73
2021/01/12 03:55:35;;;;;;;17.15;12.30;;;;;;;;;;5095671;28;20046;-73
2021/01/12 03:58:00;;;;;;;17.23;12.05;;;;;;;;;;5095991;28;20107;-73
2021/01/12 04:00:26;;;;;;;18.77;11.73;;;;;;;;;;5095480;28;20519;-74
2021/01/12 04:02:51;;;;;;;17.45;11.88;;;;;;;;;;5095949;28;20040;-73
2021/01/12 04:05:18;;;;;;;19.65;12.13;;;;;;;;;;5096114;28;20089;-73
2021/01/12 04:07:44;;;;;;;18.33;12.35;;;;;;;;;;5095908;28;20036;-73
2021/01/12 04:10:10;;;;;;;16.67;11.45;;;;;;;;;;5095618;28;20050;-73
2021/01/12 04:12:36;;;;;;;16.27;10.80;;;;;;;;;;5095641;28;20036;-73
2021/01/12 04:15:01;;;;;;;16.88;11.38;;;;;;;;;;5095516;28;20040;-73
2021/01/12 04:17:27;;;;;;;16.95;10.85;;;;;;;;;;5095254;28;20031;-73
2021/01/12 04:19:52;;;;;;;15.18;11.18;;;;;;;;;;5095457;28;20036;-73
2021/01/12 04:22:17;;;;;;;17.70;11.70;;;;;;;;;;5095668;28;20437;-73
2021/01/12 04:24:43;;;;;;;15.57;11.15;;;;;;;;;;5095418;28;20036;-73
2021/01/12 04:27:08;;;;;;;16.67;11.00;;;;;;;;;;5095489;28;20054;-73
2021/01/12 04:29:33;;;;;;;16.13;10.65;;;;;;;;;;5095314;28;20389;-73
2021/01/12 04:31:59;;;;;;;17.42;11.02;;;;;;;;;;5095113;28;20058;-73
2021/01/12 04:34:24;;;;;;;15.93;10.68;;;;;;;;;;5095103;28;20478;-73
2021/01/12 04:36:49;;;;;;;15.38;10.40;;;;;;;;;;5093818;28;20093;-73
2021/01/12 04:39:15;;;;;;;12.60;9.02;;;;;;;;;;5095399;28;20058;-73
2021/01/12 04:41:40;;;;;;;15.68;9.75;;;;;;;;;;5095155;28;20043;-73
2021/01/12 04:44:06;;;;;;;15.40;10.05;;;;;;;;;;5093953;28;20052;-73
2021/01/12 04:46:31;;;;;;;14.25;9.00;;;;;;;;;;5094832;28;20036;-73
2021/01/12 04:48:58;;;;;;;12.30;8.82;;;;;;;;;;5095116;28;20043;-73
2021/01/12 04:51:24;;;;;;;13.90;9.13;;;;;;;;;;5095101;28;20035;-73
2021/01/12 04:53:50;;;;;;;12.63;8.60;;;;;;;;;;5094936;28;20119;-73
2021/01/12 04:56:20;;;;;;;11.93;8.02;;;;;;;;;;5094932;28;20117;-73
2021/01/12 04:58:48;;;;;;;12.35;8.25;;;;;;;;;;5094700;28;20036;-73
2021/01/12 05:01:20;;;;;;;13.00;8.60;;;;;;;;;;5094638;28;20038;-73
2021/01/12 05:03:53;;;;;;;9.80;7.47;;;;;;;;;;5094803;28;20040;-73
2021/01/12 05:06:20;;;;;;;11.10;7.88;;;;;;;;;;5094847;28;20032;-73
2021/01/12 05:08:56;;;;;;;11.63;7.60;;;;;;;;;;5094683;28;20035;-73
2021/01/12 05:11:27;;;;;;;11.63;8.32;;;;;;;;;;5094550;28;20096;-73
2021/01/12 05:14:07;;;;;;;10.07;7.35;;;;;;;;;;5094537;28;20036;-73
2021/01/12 05:16:51;;;;;;;10.00;6.63;;;;;;;;;;5094220;28;20044;-73
2021/01/12 05:19:21;;;;;;;7.53;5.93;;;;;;;;;;5094726;28;20031;-73
2021/01/12 05:21:48;;;;;;;10.18;7.47;;;;;;;;;;5094115;28;20528;-73
2021/01/12 05:24:21;;;;;;;9.45;6.60;;;;;;;;;;5093175;28;20413;-73
2021/01/12 05:26:49;;;;;;;10.02;6.50;;;;;;;;;;5094570;28;20447;-73
2021/01/12 05:29:15;;;;;;;11.00;6.95;;;;;;;;;;5094437;28;20016;-73
2021/01/12 05:31:45;;;;;;;7.85;6.22;;;;;;;;;;5094190;28;20035;-73
2021/01/12 05:34:11;;;;;;;10.50;6.40;;;;;;;;;;5093690;28;20036;-73
2021/01/12 05:36:51;;;;;;;7.75;5.88;;;;;;;;;;5093890;28;20036;-73
2021/01/12 05:39:22;;;;;;;11.25;5.40;;;;;;;;;;5094221;28;20024;-73
2021/01/12 05:41:49;;;;;;;7.28;5.05;;;;;;;;;;5094052;28;20476;-73
2021/01/12 05:44:16;;;;;;;8.90;6.10;;;;;;;;;;5094066;28;20461;-73
2021/01/12 05:46:49;;;;;;;8.27;5.55;;;;;;;;;;5093563;28;20032;-73
2021/01/12 05:49:17;;;;;;;6.57;4.55;;;;;;;;;;5093847;28;20032;-73
2021/01/12 05:51:48;;;;;;;7.22;5.13;;;;;;;;;;5093971;28;20055;-73
2021/01/12 05:54:49;;;;;;;8.00;5.68;;;;;;;;;;5093671;28;20106;-73
2021/01/12 05:57:21;;;;;;;7.75;4.78;;;;;;;;;;5093426;28;20062;-73
2021/01/12 05:59:51;;;;;;;7.03;4.78;;;;;;;;;;5093708;28;20036;-73
2021/01/12 06:02:20;;;;;;;6.97;5.03;;;;;;;;;;5093449;28;20039;-73
2021/01/12 06:04:47;;;;;;;6.30;4.57;;;;;;;;;;5093658;28;20038;-73
2021/01/12 06:07:16;;;;;;;7.85;5.07;;;;;;;;;;5093761;28;20036;-73
2021/01/12 06:09:42;;;;;;;6.75;5.38;;;;;;;;;;5093471;28;20123;-73
2021/01/12 06:12:09;;;;;;;6.18;4.72;;;;;;;;;;5093435;28;20035;-73
2021/01/12 06:14:37;;;;;;;7.55;5.07;;;;;;;;;;5093684;28;20047;-73
2021/01/12 06:17:09;;;;;;;6.07;4.38;;;;;;;;;;5091742;28;20040;-73
2021/01/12 06:19:43;;;;;;;6.78;4.03;;;;;;;;;;5093600;28;20032;-73
2021/01/12 06:22:16;;;;;;;6.80;4.50;;;;;;;;;;5093098;28;20489;-73
2021/01/12 06:25:00;;;;;;;6.10;4.30;;;;;;;;;;5093274;28;20039;-73
2021/01/12 06:27:29;;;;;;;5.47;3.83;;;;;;;;;;5092071;28;20047;-73
2021/01/12 06:30:07;;;;;;;5.10;3.72;;;;;;;;;;5091934;28;20036;-73
2021/01/12 06:32:35;;;;;;;4.95;4.05;;;;;;;;;;5092986;28;20347;-73
2021/01/12 06:35:09;;;;;;;6.18;4.20;;;;;;;;;;5093451;28;20039;-73
2021/01/12 06:37:42;;;;;;;4.80;3.70;;;;;;;;;;5093347;28;20036;-73
2021/01/12 06:40:09;;;;;;;6.80;3.80;;;;;;;;;;5093469;28;20059;-73
2021/01/12 06:42:36;;;;;;;4.43;3.58;;;;;;;;;;5092080;28;20432;-73
2021/01/12 06:45:04;;;;;;;4.85;3.63;;;;;;;;;;5092628;28;20097;-73
2021/01/12 06:47:31;;;;;;;4.55;3.35;;;;;;;;;;5091672;28;20032;-76
2021/01/12 06:50:07;;;;;;;4.68;3.50;;;;;;;;;;5093303;28;20035;-76
2021/01/12 06:52:47;;;;;;;4.22;2.83;;;;;;;;;;5093214;28;20048;-76
2021/01/12 06:55:14;;;;;;;4.45;3.25;;;;;;;;;;5093220;28;20443;-76
2021/01/12 06:57:50;;;;;;;3.83;3.20;;;;;;;;;;5093149;28;20039;-76
2021/01/12 07:00:17;;;;;;;3.55;2.55;;;;;;;;;;5092966;28;20462;-76
2021/01/12 07:02:43;;;;;;;4.13;2.78;;;;;;;;;;5092835;28;20040;-76
2021/01/12 07:05:11;;;;;;;3.67;3.00;;;;;;;;;;5093303;28;20032;-76
2021/01/12 07:07:39;;;;;;;3.65;2.72;;;;;;;;;;5094541;28;20055;-75
2021/01/12 07:10:07;;;;;;;4.13;2.75;;;;;;;;;;5095176;28;20043;-76
2021/01/12 07:12:32;;;;;;;3.35;2.50;;;;;;;;;;5095391;28;20040;-76
2021/01/12 07:15:04;;;;;;;3.38;2.22;;;;;;;;;;5096529;28;20027;-73
2021/01/12 07:17:32;;;;;;;2.70;2.30;;;;;;;;;;5095336;28;20039;-74
2021/01/12 07:20:13;;;;;;;2.72;2.25;;;;;;;;;;5096831;28;20036;-74
2021/01/12 07:22:41;;;;;;;2.40;2.10;;;;;;;;;;5096668;28;20028;-74
2021/01/12 07:25:09;;;;;;;3.47;2.50;;;;;;;;;;5096705;28;20097;-73
2021/01/12 07:27:35;;;;;;;2.50;2.00;;;;;;;;;;5096708;28;20036;-74
2021/01/12 07:30:06;;;;;;;2.20;1.98;;;;;;;;;;5096664;28;20093;-73
2021/01/12 07:32:33;;;;;;;3.25;2.30;;;;;;;;;;5096307;28;20024;-74
2021/01/12 07:35:03;;;;;;;3.20;2.13;;;;;;;;;;5096558;28;20525;-74
2021/01/12 07:37:32;;;;;;;2.15;1.85;;;;;;;;;;5096580;28;20028;-74
2021/01/12 07:39:58;;;;;;;2.25;1.70;;;;;;;;;;5096507;28;20086;-74
2021/01/12 07:42:24;;;;;;;2.00;1.60;;;;;;;;;;5096460;28;20046;-74
2021/01/12 07:44:50;;;;;;;2.67;1.88;;;;;;;;;;5096422;28;20052;-75
2021/01/12 07:47:17;;;;;;;4.22;2.13;;;;;;;;;;5096105;28;20036;-74
2021/01/12 07:49:42;;;;;;;1.73;1.55;;;;;;;;;;5096196;28;20044;-74
2021/01/12 07:52:09;;;;;;;1.40;1.30;;;;;;;;;;5096420;28;20043;-74
2021/01/12 07:54:35;;;;;;;1.63;1.50;;;;;;;;;;5096059;28;20039;-75
2021/01/12 07:57:01;;;;;;;2.55;1.25;;;;;;;;;;5096207;28;20378;-75
2021/01/12 07:59:28;;;;;;;3.33;1.52;;;;;;;;;;5096022;28;20028;-75
2021/01/12 08:01:54;;;;;;;2.13;1.70;;;;;;;;;;5093941;28;20062;-74
2021/01/12 08:04:19;;;;;;;1.90;1.63;;;;;;;;;;5094648;28;20052;-74
2021/01/12 08:06:48;;;;;;;1.60;1.50;;;;;;;;;;5096035;28;20028;-75
2021/01/12 08:09:23;;;;;;;2.35;1.40;;;;;;;;;;5095397;28;20085;-75
2021/01/12 08:11:51;;;;;;;1.67;1.42;;;;;;;;;;5096453;28;20040;-77
2021/01/12 08:14:22;;;;;;;2.10;1.90;;;;;;;;;;5095745;28;20036;-77
2021/01/12 08:16:51;;;;;;;1.88;1.63;;;;;;;;;;5095266;28;20036;-76
2021/01/12 08:19:24;;;;;;;2.15;1.70;;;;;;;;;;5095516;28;20382;-76
2021/01/12 08:21:51;;;;;;;1.63;1.50;;;;;;;;;;5095791;28;20044;-76
2021/01/12 08:24:24;;;;;;;2.42;1.75;;;;;;;;;;5095813;28;20044;-78
2021/01/12 08:26:50;;;;;;;1.98;1.73;;;;;;;;;;5096346;28;20063;-76
2021/01/12 08:29:23;;;;;;;2.33;1.65;;;;;;;;;;5094132;28;20047;-76
2021/01/12 08:31:59;;;;;;;1.88;1.40;;;;;;;;;;5095211;28;20416;-76
2021/01/12 08:34:26;;;;;;;1.77;1.30;;;;;;;;;;5095888;28;20559;-76
2021/01/12 08:36:54;;;;;;;2.28;1.50;;;;;;;;;;5095435;28;20456;-76
2021/01/12 08:39:22;;;;;;;2.63;1.65;;;;;;;;;;5095371;28;20042;-75
2021/01/12 08:41:48;;;;;;;1.95;1.50;;;;;;;;;;5095158;28;20074;-75
2021/01/12 08:44:16;;;;;;;1.40;1.30;;;;;;;;;;5094841;28;20064;-76
2021/01/12 08:46:42;;;;;;;1.50;1.40;;;;;;;;;;5094881;28;20466;-75
2021/01/12 08:49:08;;;;;;;1.90;1.50;;;;;;;;;;5094897;28;20043;-75
2021/01/12 08:51:33;;;;;;;1.67;1.58;;;;;;;;;;5095183;28;20440;-76
2021/01/12 08:53:59;;;;;;;3.05;1.48;;;;;;;;;;5094992;28;20382;-76
2021/01/12 08:56:25;;;;;;;2.00;1.80;;;;;;;;;;5094874;28;20132;-76
2021/01/12 08:59:05;;;;;;;1.83;1.30;;;;;;;;;;5094990;28;20101;-76
2021/01/12 09:01:31;;;;;;;2.10;1.70;;;;;;;;;;5094786;28;20477;-75
2021/01/12 09:04:07;;;;;;;2.05;1.60;;;;;;;;;;5094986;28;20028;-77
2021/01/12 09:06:33;;;;;;;;;;;;;;;;;;5095402;28;20032;-77
2021/01/12 09:09:06;;;;;;;1.50;1.40;;;;;;;;;;5094858;28;19915;-77
2021/01/12 09:11:35;;;;;;;1.67;1.35;;;;;;;;;;5094606;28;20036;-77
2021/01/12 09:14:05;;;;;;;1.50;1.20;;;;;;;;;;5094828;28;20043;-76
2021/01/12 09:16:32;;;;;;;1.50;1.40;;;;;;;;;;5094521;28;20039;-76
2021/01/12 09:18:57;;;;;;;1.15;1.10;;;;;;;;;;5094579;28;20020;-76
2021/01/12 09:21:22;;;;;;;1.45;1.30;;;;;;;;;;5094518;28;20039;-76
2021/01/12 09:23:48;;;;;;;2.95;1.20;;;;;;;;;;5094281;28;20065;-76
2021/01/12 09:26:13;;;;;;;1.15;1.08;;;;;;;;;;5094622;28;20028;-76
2021/01/12 09:28:39;;;;;;;1.85;1.30;;;;;;;;;;5094385;28;20047;-76
2021/01/12 09:31:17;;;;;;;0.90;0.90;;;;;;;;;;5092527;28;20050;-76
2021/01/12 09:33:50;;;;;;;1.50;1.40;;;;;;;;;;5094252;28;20035;-76
2021/01/12 09:36:18;;;;;;;1.33;1.23;;;;;;;;;;5094251;28;20513;-76
2021/01/12 09:38:45;;;;;;;1.13;1.00;;;;;;;;;;5094345;28;20032;-77
2021/01/12 09:41:12;;;;;;;1.38;1.20;;;;;;;;;;5094133;28;20036;-77
2021/01/12 09:43:38;;;;;;;2.38;1.33;;;;;;;;;;5093767;28;20415;-76
2021/01/12 09:46:05;;;;;;;1.83;1.35;;;;;;;;;;5093963;28;20054;-76
2021/01/12 09:48:30;;;;;;;2.20;1.85;;;;;;;;;;5094005;28;20154;-76
2021/01/12 09:50:56;;;;;;;2.65;1.75;;;;;;;;;;5094316;28;20036;-76
2021/01/12 09:53:22;;;;;;;2.30;1.45;;;;;;;;;;5094136;28;20028;-76
2021/01/12 09:55:48;;;;;;;1.50;1.40;;;;;;;;;;5093933;28;20036;-76
2021/01/12 09:58:13;;;;;;;1.90;1.48;;;;;;;;;;5094258;28;20032;-76
2021/01/12 10:00:39;;;;;;;2.10;1.85;;;;;;;;;;5094491;28;20442;-75
2021/01/12 10:03:05;;;;;;;1.88;1.75;;;;;;;;;;5092486;28;20417;-76
2021/01/12 10:05:30;;;;;;;2.75;1.67;;;;;;;;;;5093008;28;20083;-76
2021/01/12 10:07:55;;;;;;;2.33;1.88;;;;;;;;;;5093857;28;20470;-77
2021/01/12 10:10:21;;;;;;;2.97;1.80;;;;;;;;;;5095983;28;20105;-77
2021/01/12 10:12:46;;;;;;;2.22;1.52;;;;;;;;;;5094881;28;20047;-78
2021/01/12 10:15:11;;;;;;;1.60;1.42;;;;;;;;;;5094824;28;20035;-75
2021/01/12 10:17:37;;;;;;;1.50;1.40;;;;;;;;;;5093142;28;20024;-75
2021/01/12 10:20:04;;;;;;;1.42;1.33;;;;;;;;;;5092121;28;20035;-76
2021/01/12 10:22:29;;;;;;;2.08;1.70;;;;;;;;;;5093667;28;20075;-75
2021/01/12 10:24:57;;;;;;;1.30;1.20;;;;;;;;;;5093543;28;20132;-75
2021/01/12 10:27:23;;;;;;;1.40;1.30;;;;;;;;;;5091854;28;20070;-75
2021/01/12 10:29:49;;;;;;;1.48;1.33;;;;;;;;;;5093462;28;20052;-74
2021/01/12 10:32:14;;;;;;;3.15;1.17;;;;;;;;;;5093062;28;20132;-74
2021/01/12 10:34:40;;;;;;;1.17;1.05;;;;;;;;;;5093325;28;20497;-75
2021/01/12 10:37:05;;;;;;;1.27;1.13;;;;;;;;;;5093094;28;20114;-75
2021/01/12 10:39:30;;;;;;;1.50;1.35;;;;;;;;;;5093418;28;20035;-75
2021/01/12 10:41:56;;;;;;;1.60;1.27;;;;;;;;;;5094701;28;20028;-74
2021/01/12 10:44:23;;;;;;;1.48;1.30;;;;;;;;;;5097192;28;20039;-74
2021/01/12 10:46:57;;;;;;;1.63;1.40;;;;;;;;;;5096935;28;20047;-75
2021/01/12 10:49:23;;;;;;;7.75;2.78;;;;;;;;;;5097436;28;20040;-75
2021/01/12 10:52:03;;;;;;;2.28;1.52;;;;;;;;;;5097656;28;20379;-75
2021/01/12 10:54:29;;;;;;;4.57;1.80;;;;;;;;;;5097663;28;20040;-73
2021/01/12 10:56:55;;;;;;;1.75;1.40;;;;;;;;;;5097233;28;20128;-73
2021/01/12 10:59:21;;;;;;;2.95;2.10;;;;;;;;;;5096963;28;20139;-77
2021/01/12 11:02:01;;;;;;;2.78;1.60;;;;;;;;;;5096905;28;20454;-73
2021/01/12 11:04:26;;;;;;;2.33;1.70;;;;;;;;;;5097187;28;20036;-75
2021/01/12 11:06:52;;;;;;;2.05;1.50;;;;;;;;;;5097525;28;20040;-75
2021/01/12 11:09:20;;;;;;;1.88;1.38;;;;;;;;;;5097257;28;20078;-76
2021/01/12 11:11:47;;;;;;;1.42;1.10;;;;;;;;;;5097108;28;20043;-75
2021/01/12 11:14:14;;;;;;;2.58;1.30;;;;;;;;;;5095793;28;20043;-76
2021/01/12 11:16:40;;;;;;;1.27;1.17;;;;;;;;;;5096663;28;20040;-75
2021/01/12 11:19:07;;;;;;;2.20;1.35;;;;;;;;;;5095608;28;20032;-74
2021/01/12 11:21:40;;;;;;;1.77;1.08;;;;;;;;;;5098048;28;20032;-77
2021/01/12 11:24:05;;;;;;;0.85;0.85;;;;;;;;;;5101923;28;20461;-78
2021/01/12 11:26:31;;;;;;;0.70;0.70;;;;;;;;;;5097357;28;20032;-77
2021/01/12 11:28:57;;;;;;;1.15;1.05;;;;;;;;;;5095777;28;20174;-76
2021/01/12 11:31:23;;;;;;;1.20;1.17;;;;;;;;;;5097108;28;20453;-76
2021/01/12 11:33:48;;;;;;;1.63;1.02;;;;;;;;;;5096644;28;20120;-76
2021/01/12 11:36:14;;;;;;;1.05;0.80;;;;;;;;;;5096553;28;20046;-76
2021/01/12 11:38:40;;;;;;;1.35;1.00;;;;;;;;;;5096383;28;20039;-77
2021/01/12 11:41:08;;;;;;;1.80;0.98;;;;;;;;;;5090811;28;20033;-78
2021/01/12 11:43:34;;;;;;;1.00;0.90;;;;;;;;;;5118802;28;20032;-78
2021/01/12 11:45:59;;;;;;;1.02;0.82;;;;;;;;;;5117015;28;20120;-76
2021/01/12 11:48:24;;;;;;;1.08;0.85;;;;;;;;;;5122783;28;20032;-80
2021/01/12 11:50:50;;;;;;;1.00;0.90;;;;;;;;;;5117101;28;20051;-74
2021/01/12 11:53:15;;;;;;;1.77;0.90;;;;;;;;;;5115800;28;20066;-75
2021/01/12 11:55:41;;;;;;;1.33;0.90;;;;;;;;;;5116434;28;20376;-75
2021/01/12 11:58:06;;;;;;;0.82;0.82;;;;;;;;;;5116471;28;20438;-75
2021/01/12 12:00:32;;;;;;;0.98;0.88;;;;;;;;;;5115338;28;20024;-75
2021/01/12 12:02:57;;;;;;;0.73;0.73;;;;;;;;;;5117412;28;20598;-76
2021/01/12 12:05:23;;;;;;;1.08;0.98;;;;;;;;;;5116610;28;20495;-75
2021/01/12 12:07:48;;;;;;;0.95;0.88;;;;;;;;;;5116020;28;20126;-74
2021/01/12 12:10:13;;;;;;;1.65;0.88;;;;;;;;;;5116113;28;20099;-74
2021/01/12 12:12:39;;;;;;;1.23;0.75;;;;;;;;;;5104405;28;20122;-75
2021/01/12 12:15:05;;;;;;;0.50;0.50;;;;;;;;;;5095545;28;20050;-74
2021/01/12 12:17:30;;;;;;;1.02;1.00;;;;;;;;;;5095461;28;20044;-74
2021/01/12 12:19:57;;;;;;;1.50;1.38;;;;;;;;;;5095815;28;20118;-75
2021/01/12 12:22:22;;;;;;;1.20;1.10;;;;;;;;;;5095507;28;20085;-74
2021/01/12 12:24:47;;;;;;;3.90;1.35;;;;;;;;;;5094132;28;20027;-75
2021/01/12 12:27:19;;;;;;;2.63;1.88;;;;;;;;;;5095586;28;20046;-75
2021/01/12 12:29:44;;;;;;;0.80;0.80;;;;;;;;;;5095575;28;20115;-75
2021/01/12 12:32:09;;;;;;;0.40;0.40;;;;;;;;;;5095294;28;20087;-75
2021/01/12 12:34:35;;;;;;;0.20;0.20;;;;;;;;;;5095578;28;20028;-74
2021/01/12 12:37:00;;;;;;;0.60;0.60;;;;;;;;;;5095161;28;20089;-75
2021/01/12 12:39:25;;;;;;;0.65;0.65;;;;;;;;;;5095223;28;20020;-75
2021/01/12 12:41:52;;;;;;;0.20;0.20;;;;;;;;;;5094300;28;20465;-75
2021/01/12 12:44:17;;;;;;;1.98;0.55;;;;;;;;;;5093908;28;20051;-75
2021/01/12 12:46:44;;;;;;;2.70;1.48;;;;;;;;;;5094989;28;20028;-74
2021/01/12 12:49:10;;;;;;;0.85;0.30;;;;;;;;;;5095056;28;20135;-75
2021/01/12 12:51:36;;;;;;;1.35;0.45;;;;;;;;;;5093903;28;20124;-75
2021/01/12 12:54:02;;;;;;;0.93;0.50;;;;;;;;;;5094905;28;20036;-75
2021/01/12 12:56:27;;;;;;;2.20;0.70;;;;;;;;;;5095070;28;20036;-74
2021/01/12 12:58:52;;;;;;;0.80;0.50;;;;;;;;;;5094978;28;20035;-75
2021/01/12 13:01:18;;;;;;;0.63;0.50;;;;;;;;;;5094933;28;20032;-75
2021/01/12 13:03:44;;;;;;;2.83;0.68;;;;;;;;;;5094293;28;20481;-74
2021/01/12 13:06:10;;;;;;;1.98;0.50;;;;;;;;;;5094183;28;20036;-75
2021/01/12 13:08:36;;;;;;;6.38;1.27;;;;;;;;;;5094524;28;20039;-75
2021/01/12 13:11:03;;;;;;;1.73;0.60;;;;;;;;;;5094779;28;20396;-75
2021/01/12 13:13:29;;;;;;;0.68;0.50;;;;;;;;;;5094758;28;20467;-75
2021/01/12 13:15:55;;;;;;;1.65;0.50;;;;;;;;;;5094352;28;20177;-75
2021/01/12 13:18:32;;;;;;;3.50;1.77;;;;;;;;;;5093138;28;20039;-75
2021/01/12 13:20:58;;;;;;;1.55;1.00;;;;;;;;;;5094501;28;20036;-74
2021/01/12 13:23:24;;;;;;;5.03;2.28;;;;;;;;;;5094613;28;20123;-75
2021/01/12 13:25:50;;;;;;;7.72;3.35;;;;;;;;;;5094500;28;20036;-75
2021/01/12 13:28:15;;;;;;;4.75;2.25;;;;;;;;;;5094382;28;20367;-75
2021/01/12 13:30:43;;;;;;;4.45;2.13;;;;;;;;;;5094300;28;20032;-75
2021/01/12 13:33:09;;;;;;;2.97;1.27;;;;;;;;;;5094686;28;20032;-75
2021/01/12 13:35:35;;;;;;;2.00;1.20;;;;;;;;;;5094135;28;20525;-76
2021/01/12 13:38:00;;;;;;;2.25;1.30;;;;;;;;;;5094140;28;20128;-75
2021/01/12 13:40:26;;;;;;;1.40;1.10;;;;;;;;;;5094099;28;20040;-76
2021/01/12 13:42:54;;;;;;;2.38;1.00;;;;;;;;;;5094039;28;20032;-76
2021/01/12 13:45:20;;;;;;;1.33;0.80;;;;;;;;;;5093962;28;20108;-75
2021/01/12 13:47:45;;;;;;;2.97;1.58;;;;;;;;;;5093541;28;20484;-75
2021/01/12 13:50:12;;;;;;;5.85;2.30;;;;;;;;;;5093968;28;20063;-76
2021/01/12 13:52:38;;;;;;;4.43;1.95;;;;;;;;;;5092808;28;20039;-75
2021/01/12 13:55:05;;;;;;;2.88;1.83;;;;;;;;;;5094097;28;20138;-75
2021/01/12 13:57:33;;;;;;;3.28;1.85;;;;;;;;;;5093575;28;20077;-75
2021/01/12 14:00:01;;;;;;;2.88;1.85;;;;;;;;;;5093896;28;20038;-75
2021/01/12 14:02:28;;;;;;;3.25;2.13;;;;;;;;;;5093502;28;20046;-75
2021/01/12 14:04:54;;;;;;;6.03;2.08;;;;;;;;;;5093746;28;20489;-75
2021/01/12 14:07:20;;;;;;;5.35;1.90;;;;;;;;;;5093969;28;20050;-75
2021/01/12 14:09:47;;;;;;;3.45;1.75;;;;;;;;;;5092644;28;20540;-75
2021/01/12 14:12:14;;;;;;;3.20;1.73;;;;;;;;;;5093842;28;20067;-75
2021/01/12 14:14:41;;;;;;;8.60;2.20;;;;;;;;;;5092462;28;20028;-74
2021/01/12 14:17:08;;;;;;;9.23;3.20;;;;;;;;;;5091787;28;20378;-75
2021/01/12 14:19:34;;;;;;;6.75;2.58;;;;;;;;;;5093377;28;20036;-75
2021/01/12 14:22:06;;;;;;;7.45;2.85;;;;;;;;;;5093148;28;20079;-75
2021/01/12 14:24:31;;;;;;;6.07;3.22;;;;;;;;;;5092614;28;20389;-75
2021/01/12 14:26:57;;;;;;;8.90;3.03;;;;;;;;;;5093641;28;20040;-74
2021/01/12 14:29:22;;;;;;;9.88;3.08;;;;;;;;;;5093143;28;20036;-75
2021/01/12 14:31:52;;;;;;;11.82;3.38;;;;;;;;;;5093530;28;20040;-75
2021/01/12 14:34:18;;;;;;;7.93;2.88;;;;;;;;;;5093266;28;20032;-76